CheckWX is a tool to help pilots better visualize weather data.  It is not intended as a substitute for an official pre-flight weather briefing.

14:22:13 UTC

KGBD METAR
Great Bend Municipal Airport
Great Bend, Kansas, USA
Current

10 mins ago

KGBD 221412Z AUTO 33019G23KT 10SM BKN016 14/11 A3002 RMK AO2
Observed
Apr-22 @ 14:12 UTC
Wind
  • 330° at 19 KTS
  • Gusting to 23 KTS
Visibility
10 SM
Flight Rules
MVFR
Cloud Levels
  • Broken at 1,600' AGL
Temperature
14°C / 57°F
Dewpoint
11°C / 52°F
Humidity
82%
Altimeter
30.02" Hg
Pressure
1016.62 hPa
Previous

26 mins ago

KGBD 221356Z AUTO 33018G23KT 10SM CLR 14/11 A3002 RMK AO2 SLP155 T01390111
Observed
Apr-22 @ 13:56 UTC
Wind
  • 330° at 18 KTS
  • Gusting to 23 KTS
Visibility
10 SM
Flight Rules
VFR
Cloud Levels
  • Clear skies
Temperature
14°C / 57°F
Dewpoint
11°C / 52°F
Humidity
82%
Altimeter
30.02" Hg
Pressure
1016.62 hPa
Previous

35 mins ago

KGBD 221347Z AUTO 32017KT 10SM FEW001 14/11 A3001 RMK AO2
Observed
Apr-22 @ 13:47 UTC
Wind
  • 320° at 17 KTS
Visibility
10 SM
Flight Rules
VFR
Cloud Levels
  • Few at 100' AGL
Temperature
14°C / 57°F
Dewpoint
11°C / 52°F
Humidity
82%
Altimeter
30.01" Hg
Pressure
1016.22 hPa